createdAt,value
2019-05-01T00:01:53.684Z,68.60
2019-05-01T00:04:40.269Z,67.82
2019-05-01T00:09:49.079Z,69.61
2019-05-01T00:12:16.383Z,68.69
2019-05-01T00:14:43.532Z,63.34
2019-05-01T00:17:10.930Z,68.33
2019-05-01T00:19:38.094Z,65.61
2019-05-01T00:22:05.543Z,67.71
2019-05-01T00:24:32.670Z,71.04
2019-05-01T00:26:59.764Z,73.82
2019-05-01T00:29:26.903Z,78.14
2019-05-01T00:31:54.008Z,74.02
2019-05-01T00:34:21.200Z,76.57
2019-05-01T00:36:48.484Z,83.57
2019-05-01T00:42:04.445Z,79.18
2019-05-01T00:44:31.607Z,79.66
2019-05-01T00:46:58.776Z,77.49
2019-05-01T00:49:25.911Z,77.66
2019-05-01T00:51:53.023Z,87.22
2019-05-01T00:54:20.609Z,87.96
2019-05-01T00:57:07.332Z,92.80
2019-05-01T00:59:54.384Z,91.00
2019-05-01T01:02:41.118Z,91.75
2019-05-01T01:05:08.321Z,88.52
2019-05-01T01:07:35.421Z,86.35
2019-05-01T01:10:03.163Z,86.85
2019-05-01T01:12:30.295Z,87.90
2019-05-01T01:14:57.389Z,90.69
2019-05-01T01:17:24.562Z,94.54
2019-05-01T01:19:52.112Z,91.38
2019-05-01T01:22:19.224Z,90.78
2019-05-01T01:24:46.353Z,89.73
2019-05-01T01:27:13.455Z,89.11
2019-05-01T01:29:40.861Z,88.76
2019-05-01T01:32:07.959Z,88.83
2019-05-01T01:34:35.433Z,88.69
2019-05-01T01:37:02.574Z,89.79
2019-05-01T01:39:29.781Z,91.53
2019-05-01T01:41:57.118Z,94.89
2019-05-01T01:44:43.819Z,95.42
2019-05-01T01:47:10.972Z,96.58
2019-05-01T01:49:38.071Z,96.79
2019-05-01T01:52:05.361Z,97.13
2019-05-01T01:54:32.875Z,96.04
2019-05-01T01:56:59.995Z,95.40
2019-05-01T01:59:28.326Z,98.17
2019-05-01T02:02:15.317Z,99.79
2019-05-01T02:05:02.113Z,100.00
2019-05-01T02:07:29.214Z,99.76
2019-05-01T02:09:56.331Z,100.00
2019-05-01T02:12:23.913Z,100.00
2019-05-01T02:14:51.040Z,100.00
2019-05-01T02:17:18.398Z,99.67
2019-05-01T02:19:45.875Z,98.73
2019-05-01T02:22:13.040Z,100.00
2019-05-01T02:24:40.213Z,100.00
2019-05-01T02:30:39.745Z,100.00
2019-05-01T02:33:07.053Z,100.00
2019-05-01T02:36:15.413Z,100.00
2019-05-01T02:42:34.143Z,100.00
2019-05-01T02:45:42.389Z,100.00
2019-05-01T02:48:10.228Z,100.00
2019-05-01T02:51:18.162Z,100.00
2019-05-01T02:54:26.038Z,100.00
2019-05-01T03:00:31.921Z,100.00
2019-05-01T03:03:39.895Z,100.00
2019-05-01T03:06:07.070Z,100.00
2019-05-01T03:09:15.016Z,100.00
2019-05-01T03:12:22.976Z,100.00
2019-05-01T03:15:31.101Z,100.00
2019-05-01T03:18:39.021Z,100.00
2019-05-01T03:24:06.483Z,100.00
2019-05-01T03:26:34.659Z,100.00
2019-05-01T03:29:02.682Z,100.00
2019-05-01T03:31:30.138Z,100.00
2019-05-01T03:33:57.225Z,100.00
2019-05-01T03:36:24.900Z,100.00
2019-05-01T03:38:52.081Z,100.00
2019-05-01T03:41:40.576Z,100.00
2019-05-01T03:44:08.157Z,100.00
2019-05-01T03:46:35.563Z,100.00
2019-05-01T03:49:43.454Z,100.00
2019-05-01T03:52:10.348Z,100.00
2019-05-01T03:54:37.107Z,100.00
2019-05-01T03:57:04.384Z,100.00
2019-05-01T03:59:31.548Z,100.00
2019-05-01T04:02:32.042Z,100.00
2019-05-01T04:04:47.824Z,100.00
2019-05-01T04:07:14.916Z,100.00
2019-05-01T04:09:42.049Z,100.00
2019-05-01T04:12:09.984Z,100.00
2019-05-01T04:14:39.414Z,100.00
2019-05-01T04:17:26.286Z,100.00
2019-05-01T04:19:53.483Z,100.00
2019-05-01T04:22:20.694Z,100.00
2019-05-01T04:24:47.992Z,100.00
2019-05-01T04:30:27.782Z,100.00
2019-05-01T04:36:04.343Z,100.00
2019-05-01T04:38:31.421Z,100.00
2019-05-01T04:41:20.414Z,100.00
2019-05-01T04:43:47.764Z,100.00
2019-05-01T04:46:15.097Z,100.00
2019-05-01T04:48:42.428Z,100.00
2019-05-01T04:51:09.503Z,100.00
2019-05-01T04:54:17.555Z,100.00
2019-05-01T04:56:44.752Z,100.00
2019-05-01T04:59:11.900Z,100.00
2019-05-01T05:01:58.746Z,100.00
2019-05-01T05:04:47.244Z,100.00
2019-05-01T05:07:14.323Z,100.00
2019-05-01T05:13:02.584Z,100.00
2019-05-01T05:15:49.561Z,100.00
2019-05-01T05:18:16.889Z,100.00
2019-05-01T05:20:44.311Z,100.00
2019-05-01T05:23:11.813Z,100.00
2019-05-01T05:25:52.098Z,100.00
2019-05-01T05:28:20.227Z,100.00
2019-05-01T05:31:09.358Z,100.00
2019-05-01T05:33:58.793Z,100.00
2019-05-01T05:37:07.426Z,100.00
2019-05-01T05:42:26.722Z,100.00
2019-05-01T05:44:53.655Z,100.00
2019-05-01T05:47:20.619Z,100.00
2019-05-01T05:49:47.466Z,100.00
2019-05-01T05:52:55.749Z,100.00
2019-05-01T05:55:28.152Z,100.00
2019-05-01T05:58:39.199Z,100.00
2019-05-01T06:01:47.334Z,100.00
2019-05-01T06:04:56.531Z,100.00
2019-05-01T06:08:04.819Z,99.70
2019-05-01T06:11:13.330Z,97.23
2019-05-01T06:14:21.290Z,94.84
2019-05-01T06:17:07.974Z,94.92
2019-05-01T06:23:04.600Z,92.84
2019-05-01T06:28:38.292Z,93.46
2019-05-01T06:31:24.928Z,92.69
2019-05-01T06:33:53.081Z,94.17
2019-05-01T06:36:23.691Z,94.37
2019-05-01T06:38:49.478Z,94.25
2019-05-01T06:44:45.846Z,93.87
2019-05-01T06:47:54.599Z,93.89
2019-05-01T06:50:42.722Z,93.50
2019-05-01T06:53:10.228Z,93.68
2019-05-01T06:55:37.501Z,91.22
2019-05-01T06:58:45.446Z,89.58
2019-05-01T07:01:13.721Z,88.66
2019-05-01T07:03:46.944Z,88.05
2019-05-01T07:06:14.337Z,86.61
2019-05-01T07:08:39.815Z,86.57
2019-05-01T07:11:10.935Z,85.47
2019-05-01T07:13:50.366Z,85.98
2019-05-01T07:16:17.565Z,85.94
2019-05-01T07:18:44.666Z,87.13
2019-05-01T07:21:11.760Z,97.03
2019-05-01T07:23:39.362Z,100.00
2019-05-01T07:26:10.039Z,100.00
2019-05-01T07:31:26.023Z,100.00
2019-05-01T07:33:53.618Z,100.00
2019-05-01T07:36:21.012Z,100.00
2019-05-01T07:39:29.190Z,100.00
2019-05-01T07:47:33.641Z,100.00
2019-05-01T07:50:41.958Z,100.00
2019-05-01T07:53:50.136Z,100.00
2019-05-01T07:56:17.567Z,100.00
2019-05-01T07:58:47.453Z,100.00
2019-05-01T08:04:07.143Z,100.00
2019-05-01T08:06:34.226Z,100.00
2019-05-01T08:09:01.356Z,100.00
2019-05-01T08:11:28.576Z,100.00
2019-05-01T08:14:07.033Z,100.00
2019-05-01T08:16:25.962Z,100.00
2019-05-01T08:19:13.281Z,100.00
2019-05-01T08:22:01.720Z,100.00
2019-05-01T08:24:30.238Z,100.00
2019-05-01T08:26:58.083Z,97.56
2019-05-01T08:32:52.628Z,91.94
2019-05-01T08:35:39.639Z,87.99
2019-05-01T08:38:07.674Z,88.01
2019-05-01T08:40:37.269Z,88.21
2019-05-01T08:43:04.245Z,87.61
2019-05-01T08:45:51.149Z,86.55
2019-05-01T08:51:15.554Z,85.94
2019-05-01T08:53:44.601Z,84.07
2019-05-01T08:56:11.600Z,85.85
2019-05-01T08:58:39.518Z,82.00
2019-05-01T09:01:10.814Z,80.84
2019-05-01T09:03:36.224Z,83.02
2019-05-01T09:06:04.975Z,77.43
2019-05-01T09:08:33.340Z,80.01
2019-05-01T09:11:20.045Z,75.57
2019-05-01T09:13:47.516Z,74.20
2019-05-01T09:16:14.718Z,75.63
2019-05-01T09:18:42.702Z,77.03
2019-05-01T09:21:09.891Z,79.82
2019-05-01T09:23:36.991Z,76.92
2019-05-01T09:26:23.850Z,76.15
2019-05-01T09:31:45.080Z,76.37
2019-05-01T09:34:24.506Z,74.42
2019-05-01T09:36:51.769Z,72.23
2019-05-01T09:42:08.760Z,69.44
2019-05-01T09:44:36.124Z,69.47
2019-05-01T09:49:54.033Z,65.47
2019-05-01T09:55:29.719Z,63.20
2019-05-01T10:41:23.330Z,57.25
2019-05-01T10:43:51.928Z,56.43
2019-05-01T10:46:18.788Z,57.58
2019-05-01T10:48:45.580Z,56.14
2019-05-01T10:51:12.594Z,53.36
2019-05-01T10:53:39.659Z,53.31
2019-05-01T10:56:07.239Z,52.09
2019-05-01T10:58:33.962Z,54.32
2019-05-01T11:03:44.505Z,52.26
2019-05-01T11:06:30.865Z,52.14
2019-05-01T11:08:57.624Z,50.34
2019-05-01T11:11:24.272Z,51.30
2019-05-01T11:13:51.060Z,49.59
2019-05-01T11:16:17.833Z,50.77
2019-05-01T11:18:44.595Z,51.64
2019-05-01T11:21:11.499Z,50.80
2019-05-01T11:23:39.658Z,50.50
2019-05-01T11:26:06.610Z,49.82
2019-05-01T11:28:35.770Z,51.74
2019-05-01T11:39:47.673Z,45.70
2019-05-01T11:42:15.031Z,46.07
2019-05-01T11:44:42.582Z,45.20
2019-05-01T11:47:09.896Z,44.75
2019-05-01T11:49:37.212Z,46.20
2019-05-01T11:52:04.451Z,46.42
2019-05-01T11:54:31.934Z,45.84
2019-05-01T11:56:59.035Z,45.49
2019-05-01T11:59:26.137Z,44.54
2019-05-01T12:01:53.295Z,44.60
2019-05-01T12:04:20.410Z,45.06
2019-05-01T12:06:47.593Z,46.13
2019-05-01T12:09:15.147Z,46.69
2019-05-01T12:14:30.799Z,47.87
2019-05-01T12:17:17.914Z,48.95
2019-05-01T12:19:44.648Z,50.16
2019-05-01T12:22:11.625Z,49.68
2019-05-01T12:24:38.406Z,49.53
2019-05-01T12:27:05.600Z,50.47
2019-05-01T12:29:32.422Z,52.88
2019-05-01T12:31:59.374Z,52.72
2019-05-01T12:34:26.528Z,52.43
2019-05-01T12:37:13.542Z,55.07
2019-05-01T12:39:40.370Z,54.00
2019-05-01T12:42:21.846Z,53.18
2019-05-01T12:44:48.576Z,53.68
2019-05-01T12:47:38.019Z,52.72
2019-05-01T12:50:04.787Z,53.72
2019-05-01T12:52:51.704Z,54.09
2019-05-01T12:55:38.368Z,53.26
2019-05-01T12:58:06.512Z,55.81
2019-05-01T13:01:23.222Z,55.89
2019-05-01T13:03:51.379Z,53.75
2019-05-01T13:06:18.487Z,51.63
2019-05-01T13:08:45.648Z,51.56
2019-05-01T13:11:12.846Z,51.85
2019-05-01T13:13:40.054Z,51.72
2019-05-01T13:16:07.215Z,50.75
2019-05-01T13:18:34.318Z,51.25
2019-05-01T13:21:01.485Z,52.00
2019-05-01T13:23:29.618Z,54.19
2019-05-01T13:29:10.899Z,54.11
2019-05-01T13:31:58.470Z,51.50
2019-05-01T13:34:25.983Z,50.96
2019-05-01T13:37:02.708Z,53.06
2019-05-01T13:39:22.499Z,50.19
2019-05-01T13:41:49.337Z,51.20
2019-05-01T13:44:16.496Z,51.23
2019-05-01T13:46:43.704Z,50.74
2019-05-01T13:49:10.756Z,50.89
2019-05-01T13:51:38.636Z,51.92
2019-05-01T13:56:55.619Z,49.51
2019-05-01T13:59:23.178Z,50.82
2019-05-01T14:01:50.734Z,51.54
2019-05-01T14:04:21.652Z,50.07
2019-05-01T14:06:49.221Z,50.75
2019-05-01T14:11:55.423Z,48.34
2019-05-01T14:14:23.578Z,47.25
2019-05-01T14:16:51.045Z,45.98
2019-05-01T14:19:18.205Z,47.50
2019-05-01T14:24:43.974Z,48.26
2019-05-01T14:27:12.003Z,47.92
2019-05-01T14:32:17.277Z,48.28
2019-05-01T14:34:44.315Z,47.05
2019-05-01T14:37:11.051Z,47.32
2019-05-01T14:39:38.383Z,49.06
2019-05-01T14:42:25.379Z,48.94
2019-05-01T14:44:52.583Z,50.27
2019-05-01T14:47:21.142Z,51.25
2019-05-01T14:49:48.327Z,50.48
2019-05-01T14:52:51.883Z,49.49
2019-05-01T14:55:19.042Z,47.89
2019-05-01T14:57:46.370Z,49.74
2019-05-01T15:03:01.899Z,49.37
2019-05-01T15:05:28.979Z,50.17
2019-05-01T15:07:55.954Z,50.31
2019-05-01T15:10:23.326Z,51.48
2019-05-01T15:18:47.151Z,50.23
2019-05-01T15:24:53.296Z,48.74
2019-05-01T15:27:20.850Z,45.82
2019-05-01T15:29:48.203Z,47.15
2019-05-01T15:32:15.510Z,46.94
2019-05-01T15:34:42.750Z,48.31
2019-05-01T15:37:10.270Z,49.29
2019-05-01T15:39:57.065Z,49.45
2019-05-01T15:42:43.754Z,49.77
2019-05-01T15:45:11.108Z,51.08
2019-05-01T15:47:38.185Z,49.96
2019-05-01T15:50:05.700Z,49.77
2019-05-01T15:52:32.859Z,50.19
2019-05-01T15:55:00.248Z,49.33
2019-05-01T15:57:27.355Z,48.91
2019-05-01T15:59:54.496Z,48.04
2019-05-01T16:02:21.588Z,48.49
2019-05-01T16:04:48.811Z,48.58
2019-05-01T16:07:15.973Z,48.28
2019-05-01T16:09:43.475Z,49.90
2019-05-01T16:15:47.724Z,47.76
2019-05-01T16:18:14.855Z,47.28
2019-05-01T16:20:41.934Z,47.12
2019-05-01T16:23:10.451Z,47.21
2019-05-01T16:25:37.581Z,47.68
2019-05-01T16:28:04.728Z,47.21
2019-05-01T16:30:32.056Z,47.46
2019-05-01T16:32:59.188Z,47.59
2019-05-01T16:35:26.723Z,48.26
2019-05-01T16:41:03.274Z,46.84
2019-05-01T16:43:30.735Z,47.08
2019-05-01T16:46:10.686Z,47.53
2019-05-01T16:48:37.422Z,46.66
2019-05-01T16:51:04.248Z,46.55
2019-05-01T16:53:31.026Z,46.39
2019-05-01T16:55:57.945Z,46.55
2019-05-01T16:58:25.231Z,46.61
2019-05-01T17:04:16.715Z,48.58
2019-05-01T17:07:03.444Z,48.02
2019-05-01T17:09:50.167Z,48.49
2019-05-01T17:15:47.833Z,48.37
2019-05-01T17:21:03.683Z,46.98
2019-05-01T17:23:30.812Z,45.32
2019-05-01T17:25:58.309Z,44.69
2019-05-01T17:28:25.412Z,45.05
2019-05-01T17:33:50.848Z,45.44
2019-05-01T17:36:18.752Z,46.28
2019-05-01T17:38:49.676Z,46.70
2019-05-01T17:41:34.857Z,46.97
2019-05-01T17:44:01.967Z,46.85
2019-05-01T17:46:29.510Z,48.32
2019-05-01T17:48:59.313Z,47.85
2019-05-01T17:51:26.413Z,48.87
2019-05-01T17:53:53.942Z,49.37
2019-05-01T17:56:27.701Z,49.58
2019-05-01T17:58:50.711Z,49.16
2019-05-01T18:01:37.475Z,49.21
2019-05-01T18:04:24.174Z,49.13
2019-05-01T18:06:51.963Z,50.46
2019-05-01T18:09:19.520Z,49.92
2019-05-01T18:11:47.513Z,50.12
2019-05-01T18:14:16.059Z,50.81
2019-05-01T18:16:43.205Z,51.33
2019-05-01T18:19:10.564Z,51.37
2019-05-01T18:21:37.672Z,51.66
2019-05-01T18:24:24.753Z,52.93
2019-05-01T18:27:14.705Z,53.24
2019-05-01T18:30:00.147Z,53.02
2019-05-01T18:32:51.946Z,53.54
2019-05-01T18:35:16.485Z,53.91
2019-05-01T18:40:47.808Z,54.26
2019-05-01T18:43:15.478Z,55.45
2019-05-01T18:49:13.616Z,56.09
2019-05-01T18:51:42.028Z,56.64
2019-05-01T19:02:04.359Z,57.81
2019-05-01T19:04:32.170Z,58.56
2019-05-01T19:07:00.615Z,59.32
2019-05-01T19:09:30.261Z,59.78
2019-05-01T19:11:56.996Z,59.76
2019-05-01T19:15:05.433Z,60.64
2019-05-01T19:17:32.715Z,61.91
2019-05-01T19:19:59.956Z,61.78
2019-05-01T19:22:27.204Z,61.75
2019-05-01T19:27:49.225Z,62.86
2019-05-01T19:30:17.205Z,63.31
2019-05-01T19:33:25.509Z,63.78
2019-05-01T19:35:52.696Z,65.45
2019-05-01T19:38:39.289Z,66.80
2019-05-01T19:41:08.879Z,67.20
2019-05-01T19:43:35.888Z,68.69
2019-05-01T19:46:23.947Z,69.80
2019-05-01T19:48:52.741Z,70.76
2019-05-01T19:51:33.376Z,72.78
2019-05-01T19:54:00.594Z,73.82
2019-05-01T19:56:28.523Z,74.19
2019-05-01T19:58:55.663Z,75.13
2019-05-01T20:01:22.778Z,75.48
2019-05-01T20:03:50.087Z,75.58
2019-05-01T20:06:17.794Z,76.09
2019-05-01T20:08:45.348Z,76.14
2019-05-01T20:11:12.509Z,75.33
2019-05-01T20:13:40.066Z,76.22
2019-05-01T20:16:08.515Z,75.21
2019-05-01T20:18:35.619Z,76.38
2019-05-01T20:21:02.713Z,77.93
2019-05-01T20:23:31.438Z,79.04
2019-05-01T20:25:59.294Z,78.31
2019-05-01T20:28:28.428Z,79.39
2019-05-01T20:30:56.033Z,79.70
2019-05-01T20:33:23.151Z,79.59
2019-05-01T20:35:50.268Z,80.40
2019-05-01T20:38:17.447Z,80.59
2019-05-01T20:40:45.368Z,80.98
2019-05-01T20:43:12.707Z,81.67
2019-05-01T20:45:39.947Z,81.66
2019-05-01T20:48:07.171Z,82.21
2019-05-01T20:50:34.705Z,82.19
2019-05-01T20:53:01.877Z,82.32
2019-05-01T20:55:28.987Z,82.41
2019-05-01T20:58:16.057Z,82.75
2019-05-01T21:00:43.364Z,83.64
2019-05-01T21:03:14.272Z,84.59
2019-05-01T21:06:02.844Z,85.18
2019-05-01T21:08:47.987Z,84.14
2019-05-01T21:14:23.246Z,85.68
2019-05-01T21:16:51.136Z,86.10
2019-05-01T21:19:18.294Z,86.84
2019-05-01T21:21:45.349Z,86.91
2019-05-01T21:24:14.011Z,88.14
2019-05-01T21:26:43.379Z,88.75
2019-05-01T21:29:10.875Z,89.70
2019-05-01T21:31:38.447Z,90.56
2019-05-01T21:34:05.609Z,91.56
2019-05-01T21:36:32.713Z,91.63
2019-05-01T21:39:20.418Z,91.87
2019-05-01T21:41:48.442Z,92.15
2019-05-01T21:44:15.759Z,90.86
2019-05-01T21:46:43.305Z,90.99
2019-05-01T21:49:12.796Z,91.45
2019-05-01T21:51:42.328Z,91.71
2019-05-01T21:54:08.572Z,92.33
2019-05-01T21:56:36.865Z,93.02
2019-05-01T21:59:08.380Z,93.68
2019-05-01T22:01:34.741Z,94.27
2019-05-01T22:04:22.467Z,94.96
2019-05-01T22:06:51.909Z,95.71
2019-05-01T22:12:12.922Z,96.93
2019-05-01T22:14:56.755Z,97.36
2019-05-01T22:17:43.361Z,97.53
2019-05-01T22:26:18.879Z,98.96
2019-05-01T22:31:58.676Z,98.36
2019-05-01T22:34:45.737Z,96.41
2019-05-01T22:37:12.848Z,95.85
2019-05-01T22:42:29.022Z,94.59
2019-05-01T22:45:35.068Z,93.70
2019-05-01T22:48:02.211Z,94.38
2019-05-01T22:50:29.342Z,94.10
2019-05-01T22:52:56.879Z,94.60
2019-05-01T22:55:25.336Z,94.24
2019-05-01T22:57:53.483Z,94.78
2019-05-01T23:01:02.320Z,94.86
2019-05-01T23:03:48.951Z,94.97
2019-05-01T23:08:51.389Z,95.59
2019-05-01T23:11:20.423Z,96.02
2019-05-01T23:13:47.641Z,95.98
2019-05-01T23:19:03.451Z,96.49
2019-05-01T23:21:31.011Z,96.53
2019-05-01T23:24:01.898Z,96.97
2019-05-01T23:26:27.504Z,96.95
2019-05-01T23:28:54.858Z,97.18
2019-05-01T23:31:22.049Z,96.96
2019-05-01T23:33:50.579Z,97.12
2019-05-01T23:36:23.646Z,97.43
2019-05-01T23:38:48.321Z,97.63
2019-05-01T23:41:15.476Z,97.59
2019-05-01T23:43:43.034Z,97.23
2019-05-01T23:46:10.162Z,97.11
2019-05-01T23:48:37.320Z,96.36
2019-05-01T23:51:04.412Z,95.76
2019-05-01T23:53:31.627Z,95.22
2019-05-01T23:56:13.188Z,95.27
2019-05-01T23:58:40.057Z,95.05
